sensor_id;sensor_type;location;lat;lon;timestamp;P1;durP1;ratioP1;P2;durP2;ratioP2
12476;SDS011;6303;51.504;6.300;2023-03-12T00:01:15;6.35;;;2.33;;
12476;SDS011;6303;51.504;6.300;2023-03-12T00:03:44;4.05;;;2.30;;
12476;SDS011;6303;51.504;6.300;2023-03-12T00:06:11;2.88;;;2.03;;
12476;SDS011;6303;51.504;6.300;2023-03-12T00:08:40;4.38;;;2.20;;
12476;SDS011;6303;51.504;6.300;2023-03-12T00:11:07;3.72;;;2.35;;
12476;SDS011;6303;51.504;6.300;2023-03-12T00:13:36;4.15;;;2.15;;
12476;SDS011;6303;51.504;6.300;2023-03-12T00:16:04;3.08;;;2.20;;
12476;SDS011;6303;51.504;6.300;2023-03-12T00:18:32;2.28;;;1.92;;
12476;SDS011;6303;51.504;6.300;2023-03-12T00:20:59;2.55;;;2.20;;
12476;SDS011;6303;51.504;6.300;2023-03-12T00:23:26;3.20;;;2.00;;
12476;SDS011;6303;51.504;6.300;2023-03-12T00:25:59;2.50;;;2.15;;
12476;SDS011;6303;51.504;6.300;2023-03-12T00:28:26;3.17;;;1.90;;
12476;SDS011;6303;51.504;6.300;2023-03-12T00:30:53;3.45;;;1.98;;
12476;SDS011;6303;51.504;6.300;2023-03-12T00:33:22;2.58;;;2.10;;
12476;SDS011;6303;51.504;6.300;2023-03-12T00:35:50;2.92;;;2.03;;
12476;SDS011;6303;51.504;6.300;2023-03-12T00:38:18;3.78;;;2.45;;
12476;SDS011;6303;51.504;6.300;2023-03-12T00:40:47;3.03;;;2.17;;
12476;SDS011;6303;51.504;6.300;2023-03-12T00:43:15;3.13;;;2.10;;
12476;SDS011;6303;51.504;6.300;2023-03-12T00:45:43;3.35;;;2.30;;
12476;SDS011;6303;51.504;6.300;2023-03-12T00:48:10;2.65;;;2.03;;
12476;SDS011;6303;51.504;6.300;2023-03-12T00:50:37;2.75;;;2.00;;
12476;SDS011;6303;51.504;6.300;2023-03-12T00:53:04;3.20;;;2.05;;
12476;SDS011;6303;51.504;6.300;2023-03-12T00:55:31;2.95;;;2.13;;
12476;SDS011;6303;51.504;6.300;2023-03-12T00:57:58;3.10;;;2.13;;
12476;SDS011;6303;51.504;6.300;2023-03-12T01:00:27;4.13;;;2.20;;
12476;SDS011;6303;51.504;6.300;2023-03-12T01:02:54;3.35;;;2.35;;
12476;SDS011;6303;51.504;6.300;2023-03-12T01:05:21;3.67;;;2.20;;
12476;SDS011;6303;51.504;6.300;2023-03-12T01:07:48;2.72;;;2.00;;
12476;SDS011;6303;51.504;6.300;2023-03-12T01:10:16;3.10;;;2.40;;
12476;SDS011;6303;51.504;6.300;2023-03-12T01:12:45;3.70;;;2.33;;
12476;SDS011;6303;51.504;6.300;2023-03-12T01:15:13;2.50;;;2.03;;
12476;SDS011;6303;51.504;6.300;2023-03-12T01:17:43;4.55;;;2.08;;
12476;SDS011;6303;51.504;6.300;2023-03-12T01:20:10;2.80;;;2.05;;
12476;SDS011;6303;51.504;6.300;2023-03-12T01:22:37;4.00;;;2.15;;
12476;SDS011;6303;51.504;6.300;2023-03-12T01:25:05;2.72;;;2.17;;
12476;SDS011;6303;51.504;6.300;2023-03-12T01:27:33;2.58;;;1.90;;
12476;SDS011;6303;51.504;6.300;2023-03-12T01:30:00;2.13;;;1.90;;
12476;SDS011;6303;51.504;6.300;2023-03-12T01:32:27;2.90;;;2.35;;
12476;SDS011;6303;51.504;6.300;2023-03-12T01:34:56;3.30;;;2.30;;
12476;SDS011;6303;51.504;6.300;2023-03-12T01:37:24;2.58;;;2.10;;
12476;SDS011;6303;51.504;6.300;2023-03-12T01:39:51;3.03;;;2.25;;
12476;SDS011;6303;51.504;6.300;2023-03-12T01:42:19;2.03;;;1.90;;
12476;SDS011;6303;51.504;6.300;2023-03-12T01:44:50;2.75;;;2.22;;
12476;SDS011;6303;51.504;6.300;2023-03-12T01:47:18;2.55;;;2.00;;
12476;SDS011;6303;51.504;6.300;2023-03-12T01:49:46;2.15;;;1.98;;
12476;SDS011;6303;51.504;6.300;2023-03-12T01:52:17;2.40;;;1.90;;
12476;SDS011;6303;51.504;6.300;2023-03-12T01:54:52;3.10;;;2.20;;
12476;SDS011;6303;51.504;6.300;2023-03-12T01:57:25;3.53;;;2.10;;
12476;SDS011;6303;51.504;6.300;2023-03-12T01:59:57;2.35;;;2.00;;
12476;SDS011;6303;51.504;6.300;2023-03-12T02:02:39;2.55;;;2.05;;
12476;SDS011;6303;51.504;6.300;2023-03-12T02:05:12;2.50;;;1.95;;
12476;SDS011;6303;51.504;6.300;2023-03-12T02:07:46;2.60;;;1.92;;
12476;SDS011;6303;51.504;6.300;2023-03-12T02:10:14;3.05;;;2.25;;
12476;SDS011;6303;51.504;6.300;2023-03-12T02:12:41;2.65;;;2.10;;
12476;SDS011;6303;51.504;6.300;2023-03-12T02:15:09;2.53;;;2.13;;
12476;SDS011;6303;51.504;6.300;2023-03-12T02:17:37;2.53;;;2.15;;
12476;SDS011;6303;51.504;6.300;2023-03-12T02:20:09;2.55;;;2.20;;
12476;SDS011;6303;51.504;6.300;2023-03-12T02:22:43;2.63;;;2.30;;
12476;SDS011;6303;51.504;6.300;2023-03-12T02:25:21;3.72;;;2.38;;
12476;SDS011;6303;51.504;6.300;2023-03-12T02:27:55;2.47;;;2.05;;
12476;SDS011;6303;51.504;6.300;2023-03-12T02:30:24;2.10;;;1.90;;
12476;SDS011;6303;51.504;6.300;2023-03-12T02:32:52;2.97;;;1.98;;
12476;SDS011;6303;51.504;6.300;2023-03-12T02:35:21;2.85;;;2.20;;
12476;SDS011;6303;51.504;6.300;2023-03-12T02:37:48;2.60;;;2.00;;
12476;SDS011;6303;51.504;6.300;2023-03-12T02:40:17;2.50;;;1.95;;
12476;SDS011;6303;51.504;6.300;2023-03-12T02:42:50;2.67;;;2.20;;
12476;SDS011;6303;51.504;6.300;2023-03-12T02:45:18;2.30;;;1.95;;
12476;SDS011;6303;51.504;6.300;2023-03-12T02:47:45;3.63;;;2.10;;
12476;SDS011;6303;51.504;6.300;2023-03-12T02:50:12;2.13;;;1.88;;
12476;SDS011;6303;51.504;6.300;2023-03-12T02:52:39;2.40;;;2.20;;
12476;SDS011;6303;51.504;6.300;2023-03-12T02:55:08;2.60;;;2.03;;
12476;SDS011;6303;51.504;6.300;2023-03-12T02:57:35;2.40;;;2.10;;
12476;SDS011;6303;51.504;6.300;2023-03-12T03:00:14;2.25;;;1.75;;
12476;SDS011;6303;51.504;6.300;2023-03-12T03:02:47;2.45;;;2.00;;
12476;SDS011;6303;51.504;6.300;2023-03-12T03:05:14;2.28;;;2.08;;
12476;SDS011;6303;51.504;6.300;2023-03-12T03:07:41;2.40;;;2.10;;
12476;SDS011;6303;51.504;6.300;2023-03-12T03:10:08;2.15;;;1.75;;
12476;SDS011;6303;51.504;6.300;2023-03-12T03:12:36;3.05;;;2.10;;
12476;SDS011;6303;51.504;6.300;2023-03-12T03:15:04;2.10;;;1.85;;
12476;SDS011;6303;51.504;6.300;2023-03-12T03:17:34;2.20;;;2.00;;
12476;SDS011;6303;51.504;6.300;2023-03-12T03:20:01;2.83;;;2.10;;
12476;SDS011;6303;51.504;6.300;2023-03-12T03:22:31;2.10;;;2.00;;
12476;SDS011;6303;51.504;6.300;2023-03-12T03:24:58;3.08;;;2.10;;
12476;SDS011;6303;51.504;6.300;2023-03-12T03:27:25;1.98;;;1.75;;
12476;SDS011;6303;51.504;6.300;2023-03-12T03:29:52;2.85;;;2.17;;
12476;SDS011;6303;51.504;6.300;2023-03-12T03:32:20;2.40;;;2.10;;
12476;SDS011;6303;51.504;6.300;2023-03-12T03:34:48;2.40;;;2.20;;
12476;SDS011;6303;51.504;6.300;2023-03-12T03:37:16;2.35;;;2.00;;
12476;SDS011;6303;51.504;6.300;2023-03-12T03:39:44;3.03;;;2.17;;
12476;SDS011;6303;51.504;6.300;2023-03-12T03:42:11;2.42;;;2.03;;
12476;SDS011;6303;51.504;6.300;2023-03-12T03:44:38;2.08;;;1.83;;
12476;SDS011;6303;51.504;6.300;2023-03-12T03:47:05;2.75;;;2.25;;
12476;SDS011;6303;51.504;6.300;2023-03-12T03:49:32;3.00;;;2.10;;
12476;SDS011;6303;51.504;6.300;2023-03-12T03:52:01;1.92;;;1.77;;
12476;SDS011;6303;51.504;6.300;2023-03-12T03:54:32;2.58;;;1.83;;
12476;SDS011;6303;51.504;6.300;2023-03-12T03:57:01;2.10;;;1.90;;
12476;SDS011;6303;51.504;6.300;2023-03-12T03:59:28;2.60;;;1.90;;
12476;SDS011;6303;51.504;6.300;2023-03-12T04:01:56;2.33;;;2.08;;
12476;SDS011;6303;51.504;6.300;2023-03-12T04:04:24;1.92;;;1.70;;
12476;SDS011;6303;51.504;6.300;2023-03-12T04:06:51;2.65;;;2.05;;
12476;SDS011;6303;51.504;6.300;2023-03-12T04:09:19;2.28;;;1.92;;
12476;SDS011;6303;51.504;6.300;2023-03-12T04:11:47;2.20;;;2.00;;
12476;SDS011;6303;51.504;6.300;2023-03-12T04:14:14;3.05;;;2.17;;
12476;SDS011;6303;51.504;6.300;2023-03-12T04:16:43;2.33;;;1.88;;
12476;SDS011;6303;51.504;6.300;2023-03-12T04:19:10;2.53;;;2.00;;
12476;SDS011;6303;51.504;6.300;2023-03-12T04:21:38;2.25;;;2.05;;
12476;SDS011;6303;51.504;6.300;2023-03-12T04:24:06;2.22;;;2.03;;
12476;SDS011;6303;51.504;6.300;2023-03-12T04:26:38;2.10;;;1.90;;
12476;SDS011;6303;51.504;6.300;2023-03-12T04:29:06;2.30;;;2.10;;
12476;SDS011;6303;51.504;6.300;2023-03-12T04:31:34;2.15;;;1.80;;
12476;SDS011;6303;51.504;6.300;2023-03-12T04:34:01;2.03;;;1.80;;
12476;SDS011;6303;51.504;6.300;2023-03-12T04:36:28;1.83;;;1.70;;
12476;SDS011;6303;51.504;6.300;2023-03-12T04:38:56;2.47;;;2.00;;
12476;SDS011;6303;51.504;6.300;2023-03-12T04:41:27;2.15;;;1.80;;
12476;SDS011;6303;51.504;6.300;2023-03-12T04:44:02;2.00;;;1.80;;
12476;SDS011;6303;51.504;6.300;2023-03-12T04:46:29;3.03;;;2.10;;
12476;SDS011;6303;51.504;6.300;2023-03-12T04:48:57;2.17;;;1.85;;
12476;SDS011;6303;51.504;6.300;2023-03-12T04:51:29;2.25;;;2.05;;
12476;SDS011;6303;51.504;6.300;2023-03-12T04:53:57;3.05;;;2.20;;
12476;SDS011;6303;51.504;6.300;2023-03-12T04:56:25;2.72;;;2.05;;
12476;SDS011;6303;51.504;6.300;2023-03-12T04:58:52;2.53;;;1.90;;
12476;SDS011;6303;51.504;6.300;2023-03-12T05:01:23;1.70;;;1.60;;
12476;SDS011;6303;51.504;6.300;2023-03-12T05:03:51;2.15;;;1.92;;
12476;SDS011;6303;51.504;6.300;2023-03-12T05:06:19;2.60;;;1.90;;
12476;SDS011;6303;51.504;6.300;2023-03-12T05:08:47;2.28;;;2.08;;
12476;SDS011;6303;51.504;6.300;2023-03-12T05:11:14;2.53;;;1.95;;
12476;SDS011;6303;51.504;6.300;2023-03-12T05:13:42;2.00;;;1.80;;
12476;SDS011;6303;51.504;6.300;2023-03-12T05:16:10;2.97;;;2.08;;
12476;SDS011;6303;51.504;6.300;2023-03-12T05:18:38;2.10;;;1.83;;
12476;SDS011;6303;51.504;6.300;2023-03-12T05:21:06;1.95;;;1.83;;
12476;SDS011;6303;51.504;6.300;2023-03-12T05:23:35;2.25;;;1.70;;
12476;SDS011;6303;51.504;6.300;2023-03-12T05:26:03;2.15;;;1.92;;
12476;SDS011;6303;51.504;6.300;2023-03-12T05:28:31;1.90;;;1.80;;
12476;SDS011;6303;51.504;6.300;2023-03-12T05:31:06;2.88;;;1.90;;
12476;SDS011;6303;51.504;6.300;2023-03-12T05:33:35;2.88;;;1.85;;
12476;SDS011;6303;51.504;6.300;2023-03-12T05:36:04;1.80;;;1.70;;
12476;SDS011;6303;51.504;6.300;2023-03-12T05:38:32;1.80;;;1.70;;
12476;SDS011;6303;51.504;6.300;2023-03-12T05:40:59;2.60;;;1.70;;
12476;SDS011;6303;51.504;6.300;2023-03-12T05:43:29;2.08;;;1.88;;
12476;SDS011;6303;51.504;6.300;2023-03-12T05:45:57;1.70;;;1.60;;
12476;SDS011;6303;51.504;6.300;2023-03-12T05:48:27;1.80;;;1.70;;
12476;SDS011;6303;51.504;6.300;2023-03-12T05:50:54;2.10;;;1.90;;
12476;SDS011;6303;51.504;6.300;2023-03-12T05:53:23;1.95;;;1.75;;
12476;SDS011;6303;51.504;6.300;2023-03-12T05:55:51;2.05;;;1.70;;
12476;SDS011;6303;51.504;6.300;2023-03-12T05:58:18;2.13;;;1.77;;
12476;SDS011;6303;51.504;6.300;2023-03-12T06:00:46;1.65;;;1.55;;
12476;SDS011;6303;51.504;6.300;2023-03-12T06:03:14;2.65;;;1.80;;
12476;SDS011;6303;51.504;6.300;2023-03-12T06:05:42;1.70;;;1.60;;
12476;SDS011;6303;51.504;6.300;2023-03-12T06:08:12;1.90;;;1.70;;
12476;SDS011;6303;51.504;6.300;2023-03-12T06:10:41;1.85;;;1.73;;
12476;SDS011;6303;51.504;6.300;2023-03-12T06:13:08;2.35;;;1.75;;
12476;SDS011;6303;51.504;6.300;2023-03-12T06:15:36;1.83;;;1.70;;
12476;SDS011;6303;51.504;6.300;2023-03-12T06:18:05;2.22;;;1.60;;
12476;SDS011;6303;51.504;6.300;2023-03-12T06:20:33;2.05;;;1.70;;
12476;SDS011;6303;51.504;6.300;2023-03-12T06:23:00;2.20;;;1.80;;
12476;SDS011;6303;51.504;6.300;2023-03-12T06:25:29;1.73;;;1.50;;
12476;SDS011;6303;51.504;6.300;2023-03-12T06:27:58;1.85;;;1.70;;
12476;SDS011;6303;51.504;6.300;2023-03-12T06:30:25;2.05;;;1.83;;
12476;SDS011;6303;51.504;6.300;2023-03-12T06:32:52;2.10;;;1.70;;
12476;SDS011;6303;51.504;6.300;2023-03-12T06:35:19;1.77;;;1.67;;
12476;SDS011;6303;51.504;6.300;2023-03-12T06:37:46;2.20;;;1.77;;
12476;SDS011;6303;51.504;6.300;2023-03-12T06:40:13;2.00;;;1.80;;
12476;SDS011;6303;51.504;6.300;2023-03-12T06:42:41;2.17;;;1.80;;
12476;SDS011;6303;51.504;6.300;2023-03-12T06:45:10;1.70;;;1.60;;
12476;SDS011;6303;51.504;6.300;2023-03-12T06:47:37;1.95;;;1.42;;
12476;SDS011;6303;51.504;6.300;2023-03-12T06:50:04;2.10;;;1.42;;
12476;SDS011;6303;51.504;6.300;2023-03-12T06:52:31;2.53;;;1.58;;
12476;SDS011;6303;51.504;6.300;2023-03-12T06:54:58;1.67;;;1.52;;
12476;SDS011;6303;51.504;6.300;2023-03-12T06:57:25;1.50;;;1.40;;
12476;SDS011;6303;51.504;6.300;2023-03-12T06:59:52;1.83;;;1.70;;
12476;SDS011;6303;51.504;6.300;2023-03-12T07:02:21;1.58;;;1.48;;
12476;SDS011;6303;51.504;6.300;2023-03-12T07:04:48;1.80;;;1.70;;
12476;SDS011;6303;51.504;6.300;2023-03-12T07:07:15;1.90;;;1.65;;
12476;SDS011;6303;51.504;6.300;2023-03-12T07:09:42;1.77;;;1.50;;
12476;SDS011;6303;51.504;6.300;2023-03-12T07:12:09;1.70;;;1.55;;
12476;SDS011;6303;51.504;6.300;2023-03-12T07:14:36;1.52;;;1.42;;
12476;SDS011;6303;51.504;6.300;2023-03-12T07:17:03;2.13;;;1.60;;
12476;SDS011;6303;51.504;6.300;2023-03-12T07:19:32;1.52;;;1.42;;
12476;SDS011;6303;51.504;6.300;2023-03-12T07:21:59;3.88;;;1.60;;
12476;SDS011;6303;51.504;6.300;2023-03-12T07:24:26;1.55;;;1.45;;
12476;SDS011;6303;51.504;6.300;2023-03-12T07:26:53;1.75;;;1.65;;
12476;SDS011;6303;51.504;6.300;2023-03-12T07:29:20;1.73;;;1.63;;
12476;SDS011;6303;51.504;6.300;2023-03-12T07:31:47;1.80;;;1.50;;
12476;SDS011;6303;51.504;6.300;2023-03-12T07:34:14;1.50;;;1.38;;
12476;SDS011;6303;51.504;6.300;2023-03-12T07:36:42;3.67;;;1.75;;
12476;SDS011;6303;51.504;6.300;2023-03-12T07:39:09;2.55;;;1.50;;
12476;SDS011;6303;51.504;6.300;2023-03-12T07:41:36;2.63;;;1.85;;
12476;SDS011;6303;51.504;6.300;2023-03-12T07:44:04;3.38;;;1.50;;
12476;SDS011;6303;51.504;6.300;2023-03-12T07:46:32;1.98;;;1.55;;
12476;SDS011;6303;51.504;6.300;2023-03-12T07:48:59;3.05;;;1.80;;
12476;SDS011;6303;51.504;6.300;2023-03-12T07:51:26;4.97;;;1.80;;
12476;SDS011;6303;51.504;6.300;2023-03-12T07:53:54;2.63;;;2.00;;
12476;SDS011;6303;51.504;6.300;2023-03-12T07:56:21;4.10;;;1.88;;
12476;SDS011;6303;51.504;6.300;2023-03-12T07:58:48;5.22;;;1.80;;
12476;SDS011;6303;51.504;6.300;2023-03-12T08:01:15;3.05;;;1.90;;
12476;SDS011;6303;51.504;6.300;2023-03-12T08:03:43;4.43;;;2.13;;
12476;SDS011;6303;51.504;6.300;2023-03-12T08:06:10;5.88;;;2.17;;
12476;SDS011;6303;51.504;6.300;2023-03-12T08:08:37;4.85;;;2.10;;
12476;SDS011;6303;51.504;6.300;2023-03-12T08:11:08;5.72;;;2.25;;
12476;SDS011;6303;51.504;6.300;2023-03-12T08:13:35;5.65;;;2.55;;
12476;SDS011;6303;51.504;6.300;2023-03-12T08:16:02;5.63;;;2.30;;
12476;SDS011;6303;51.504;6.300;2023-03-12T08:18:29;4.25;;;2.20;;
12476;SDS011;6303;51.504;6.300;2023-03-12T08:20:56;7.10;;;2.50;;
12476;SDS011;6303;51.504;6.300;2023-03-12T08:23:23;5.45;;;2.55;;
12476;SDS011;6303;51.504;6.300;2023-03-12T08:25:51;6.00;;;2.50;;
12476;SDS011;6303;51.504;6.300;2023-03-12T08:28:21;5.45;;;2.42;;
12476;SDS011;6303;51.504;6.300;2023-03-12T08:30:49;6.55;;;2.28;;
12476;SDS011;6303;51.504;6.300;2023-03-12T08:33:18;6.78;;;2.40;;
12476;SDS011;6303;51.504;6.300;2023-03-12T08:35:46;4.82;;;2.28;;
12476;SDS011;6303;51.504;6.300;2023-03-12T08:38:14;5.07;;;2.35;;
12476;SDS011;6303;51.504;6.300;2023-03-12T08:40:41;5.32;;;1.92;;
12476;SDS011;6303;51.504;6.300;2023-03-12T08:43:09;8.43;;;2.30;;
12476;SDS011;6303;51.504;6.300;2023-03-12T08:45:37;4.90;;;2.10;;
12476;SDS011;6303;51.504;6.300;2023-03-12T08:48:05;11.02;;;2.33;;
12476;SDS011;6303;51.504;6.300;2023-03-12T08:50:33;4.85;;;2.20;;
12476;SDS011;6303;51.504;6.300;2023-03-12T08:53:01;5.28;;;2.17;;
12476;SDS011;6303;51.504;6.300;2023-03-12T08:55:28;4.25;;;2.00;;
12476;SDS011;6303;51.504;6.300;2023-03-12T08:57:55;2.88;;;1.98;;
12476;SDS011;6303;51.504;6.300;2023-03-12T09:00:22;4.85;;;2.20;;
12476;SDS011;6303;51.504;6.300;2023-03-12T09:02:51;3.70;;;2.00;;
12476;SDS011;6303;51.504;6.300;2023-03-12T09:05:18;2.75;;;1.65;;
12476;SDS011;6303;51.504;6.300;2023-03-12T09:07:45;3.20;;;2.00;;
12476;SDS011;6303;51.504;6.300;2023-03-12T09:12:41;3.75;;;1.80;;
12476;SDS011;6303;51.504;6.300;2023-03-12T09:15:09;6.45;;;2.00;;
12476;SDS011;6303;51.504;6.300;2023-03-12T09:17:36;2.80;;;1.70;;
12476;SDS011;6303;51.504;6.300;2023-03-12T09:20:06;2.17;;;1.70;;
12476;SDS011;6303;51.504;6.300;2023-03-12T09:22:35;5.05;;;2.08;;
12476;SDS011;6303;51.504;6.300;2023-03-12T09:25:02;2.40;;;1.77;;
12476;SDS011;6303;51.504;6.300;2023-03-12T09:27:29;3.63;;;1.98;;
12476;SDS011;6303;51.504;6.300;2023-03-12T09:30:00;3.50;;;1.80;;
12476;SDS011;6303;51.504;6.300;2023-03-12T09:32:27;2.08;;;1.70;;
12476;SDS011;6303;51.504;6.300;2023-03-12T09:34:54;2.80;;;1.77;;
12476;SDS011;6303;51.504;6.300;2023-03-12T09:37:23;3.80;;;1.70;;
12476;SDS011;6303;51.504;6.300;2023-03-12T09:39:50;2.40;;;1.73;;
12476;SDS011;6303;51.504;6.300;2023-03-12T09:42:20;3.28;;;1.75;;
12476;SDS011;6303;51.504;6.300;2023-03-12T09:44:50;2.97;;;1.67;;
12476;SDS011;6303;51.504;6.300;2023-03-12T09:47:22;2.70;;;1.80;;
12476;SDS011;6303;51.504;6.300;2023-03-12T09:49:53;3.05;;;1.55;;
12476;SDS011;6303;51.504;6.300;2023-03-12T09:52:27;3.42;;;1.58;;
12476;SDS011;6303;51.504;6.300;2023-03-12T09:54:59;2.15;;;1.50;;
12476;SDS011;6303;51.504;6.300;2023-03-12T09:57:31;2.08;;;1.58;;
12476;SDS011;6303;51.504;6.300;2023-03-12T09:59:58;2.65;;;1.98;;
12476;SDS011;6303;51.504;6.300;2023-03-12T10:02:29;2.95;;;1.65;;
12476;SDS011;6303;51.504;6.300;2023-03-12T10:05:32;3.30;;;1.60;;
12476;SDS011;6303;51.504;6.300;2023-03-12T10:08:04;2.47;;;1.70;;
12476;SDS011;6303;51.504;6.300;2023-03-12T10:10:44;1.75;;;1.40;;
12476;SDS011;6303;51.504;6.300;2023-03-12T10:13:22;1.70;;;1.58;;
12476;SDS011;6303;51.504;6.300;2023-03-12T10:16:21;1.50;;;1.40;;
12476;SDS011;6303;51.504;6.300;2023-03-12T10:18:58;3.10;;;1.73;;
12476;SDS011;6303;51.504;6.300;2023-03-12T10:21:37;3.00;;;1.50;;
12476;SDS011;6303;51.504;6.300;2023-03-12T10:24:18;2.53;;;1.45;;
12476;SDS011;6303;51.504;6.300;2023-03-12T10:26:53;3.72;;;1.77;;
12476;SDS011;6303;51.504;6.300;2023-03-12T10:29:23;2.15;;;1.50;;
12476;SDS011;6303;51.504;6.300;2023-03-12T10:31:54;1.98;;;1.40;;
12476;SDS011;6303;51.504;6.300;2023-03-12T10:34:28;1.60;;;1.50;;
12476;SDS011;6303;51.504;6.300;2023-03-12T10:36:59;2.13;;;1.50;;
12476;SDS011;6303;51.504;6.300;2023-03-12T10:39:31;2.35;;;1.35;;
12476;SDS011;6303;51.504;6.300;2023-03-12T10:41:59;1.88;;;1.50;;
12476;SDS011;6303;51.504;6.300;2023-03-12T10:44:26;3.03;;;1.60;;
12476;SDS011;6303;51.504;6.300;2023-03-12T10:46:59;2.85;;;1.90;;
12476;SDS011;6303;51.504;6.300;2023-03-12T10:49:44;1.67;;;1.50;;
12476;SDS011;6303;51.504;6.300;2023-03-12T10:52:15;1.80;;;1.42;;
12476;SDS011;6303;51.504;6.300;2023-03-12T10:54:46;2.53;;;1.30;;
12476;SDS011;6303;51.504;6.300;2023-03-12T10:57:14;1.83;;;1.55;;
12476;SDS011;6303;51.504;6.300;2023-03-12T10:59:44;1.55;;;1.40;;
12476;SDS011;6303;51.504;6.300;2023-03-12T11:02:24;1.38;;;1.27;;
12476;SDS011;6303;51.504;6.300;2023-03-12T11:04:55;2.15;;;1.50;;
12476;SDS011;6303;51.504;6.300;2023-03-12T11:07:24;1.40;;;1.30;;
12476;SDS011;6303;51.504;6.300;2023-03-12T11:10:13;2.00;;;1.30;;
12476;SDS011;6303;51.504;6.300;2023-03-12T11:12:50;1.42;;;1.33;;
12476;SDS011;6303;51.504;6.300;2023-03-12T11:15:20;1.73;;;1.50;;
12476;SDS011;6303;51.504;6.300;2023-03-12T11:17:48;1.83;;;1.50;;
12476;SDS011;6303;51.504;6.300;2023-03-12T11:20:26;2.25;;;1.48;;
12476;SDS011;6303;51.504;6.300;2023-03-12T11:22:55;1.50;;;1.40;;
12476;SDS011;6303;51.504;6.300;2023-03-12T11:25:24;1.38;;;1.27;;
12476;SDS011;6303;51.504;6.300;2023-03-12T11:27:53;1.42;;;1.33;;
12476;SDS011;6303;51.504;6.300;2023-03-12T11:30:22;1.30;;;1.20;;
12476;SDS011;6303;51.504;6.300;2023-03-12T11:32:54;1.45;;;1.30;;
12476;SDS011;6303;51.504;6.300;2023-03-12T11:35:26;1.60;;;1.50;;
12476;SDS011;6303;51.504;6.300;2023-03-12T11:38:06;1.33;;;1.23;;
12476;SDS011;6303;51.504;6.300;2023-03-12T11:40:47;2.08;;;1.23;;
12476;SDS011;6303;51.504;6.300;2023-03-12T11:43:31;1.70;;;1.35;;
12476;SDS011;6303;51.504;6.300;2023-03-12T11:46:10;1.40;;;1.20;;
12476;SDS011;6303;51.504;6.300;2023-03-12T11:48:45;1.50;;;1.40;;
12476;SDS011;6303;51.504;6.300;2023-03-12T11:51:24;1.25;;;1.15;;
12476;SDS011;6303;51.504;6.300;2023-03-12T11:54:18;3.05;;;1.50;;
12476;SDS011;6303;51.504;6.300;2023-03-12T11:56:55;1.80;;;1.50;;
12476;SDS011;6303;51.504;6.300;2023-03-12T11:59:35;1.55;;;1.40;;
12476;SDS011;6303;51.504;6.300;2023-03-12T12:08:13;1.42;;;1.33;;
12476;SDS011;6303;51.504;6.300;2023-03-12T12:10:58;1.75;;;1.38;;
12476;SDS011;6303;51.504;6.300;2023-03-12T12:13:37;1.65;;;1.55;;
12476;SDS011;6303;51.504;6.300;2023-03-12T12:16:18;1.50;;;1.40;;
12476;SDS011;6303;51.504;6.300;2023-03-12T12:18:59;1.50;;;1.40;;
12476;SDS011;6303;51.504;6.300;2023-03-12T12:21:43;1.50;;;1.40;;
12476;SDS011;6303;51.504;6.300;2023-03-12T12:24:21;1.60;;;1.50;;
12476;SDS011;6303;51.504;6.300;2023-03-12T12:27:01;1.50;;;1.40;;
12476;SDS011;6303;51.504;6.300;2023-03-12T12:29:37;1.63;;;1.42;;
12476;SDS011;6303;51.504;6.300;2023-03-12T12:32:19;1.42;;;1.33;;
12476;SDS011;6303;51.504;6.300;2023-03-12T12:34:58;1.73;;;1.63;;
12476;SDS011;6303;51.504;6.300;2023-03-12T12:37:42;1.30;;;1.20;;
12476;SDS011;6303;51.504;6.300;2023-03-12T12:40:16;1.67;;;1.52;;
12476;SDS011;6303;51.504;6.300;2023-03-12T12:42:51;1.85;;;1.50;;
12476;SDS011;6303;51.504;6.300;2023-03-12T12:45:38;1.85;;;1.50;;
12476;SDS011;6303;51.504;6.300;2023-03-12T12:48:07;1.90;;;1.70;;
12476;SDS011;6303;51.504;6.300;2023-03-12T12:50:39;1.52;;;1.40;;
12476;SDS011;6303;51.504;6.300;2023-03-12T12:53:12;1.70;;;1.60;;
12476;SDS011;6303;51.504;6.300;2023-03-12T12:55:47;2.13;;;1.50;;
12476;SDS011;6303;51.504;6.300;2023-03-12T12:58:22;1.63;;;1.52;;
12476;SDS011;6303;51.504;6.300;2023-03-12T13:00:59;1.90;;;1.80;;
12476;SDS011;6303;51.504;6.300;2023-03-12T13:03:27;1.88;;;1.63;;
12476;SDS011;6303;51.504;6.300;2023-03-12T13:05:56;2.08;;;1.88;;
12476;SDS011;6303;51.504;6.300;2023-03-12T13:11:26;2.33;;;1.70;;
12476;SDS011;6303;51.504;6.300;2023-03-12T13:14:13;1.90;;;1.70;;
12476;SDS011;6303;51.504;6.300;2023-03-12T13:17:19;1.60;;;1.50;;
12476;SDS011;6303;51.504;6.300;2023-03-12T13:19:53;1.98;;;1.73;;
12476;SDS011;6303;51.504;6.300;2023-03-12T13:22:30;2.10;;;1.88;;
12476;SDS011;6303;51.504;6.300;2023-03-12T13:25:10;1.60;;;1.45;;
12476;SDS011;6303;51.504;6.300;2023-03-12T13:27:55;1.88;;;1.67;;
12476;SDS011;6303;51.504;6.300;2023-03-12T13:33:15;2.40;;;2.00;;
12476;SDS011;6303;51.504;6.300;2023-03-12T13:36:03;2.33;;;2.00;;
12476;SDS011;6303;51.504;6.300;2023-03-12T13:38:37;2.63;;;1.88;;
12476;SDS011;6303;51.504;6.300;2023-03-12T13:41:25;2.10;;;1.90;;
12476;SDS011;6303;51.504;6.300;2023-03-12T13:43:56;2.17;;;1.75;;
12476;SDS011;6303;51.504;6.300;2023-03-12T13:46:28;2.22;;;2.03;;
12476;SDS011;6303;51.504;6.300;2023-03-12T13:49:08;4.30;;;2.13;;
12476;SDS011;6303;51.504;6.300;2023-03-12T13:51:45;2.80;;;1.77;;
12476;SDS011;6303;51.504;6.300;2023-03-12T13:54:22;2.80;;;2.03;;
12476;SDS011;6303;51.504;6.300;2023-03-12T13:56:55;2.65;;;1.90;;
12476;SDS011;6303;51.504;6.300;2023-03-12T13:59:23;2.20;;;1.98;;
12476;SDS011;6303;51.504;6.300;2023-03-12T14:01:53;2.42;;;2.10;;
12476;SDS011;6303;51.504;6.300;2023-03-12T14:04:31;3.80;;;2.28;;
12476;SDS011;6303;51.504;6.300;2023-03-12T14:10:13;3.72;;;2.10;;
12476;SDS011;6303;51.504;6.300;2023-03-12T14:12:49;3.05;;;1.83;;
12476;SDS011;6303;51.504;6.300;2023-03-12T14:15:26;2.70;;;2.15;;
12476;SDS011;6303;51.504;6.300;2023-03-12T14:18:01;3.45;;;1.88;;
12476;SDS011;6303;51.504;6.300;2023-03-12T14:20:39;4.05;;;1.90;;
12476;SDS011;6303;51.504;6.300;2023-03-12T14:23:07;2.85;;;2.10;;
12476;SDS011;6303;51.504;6.300;2023-03-12T14:25:41;2.83;;;2.13;;
12476;SDS011;6303;51.504;6.300;2023-03-12T14:28:10;2.42;;;1.90;;
12476;SDS011;6303;51.504;6.300;2023-03-12T14:30:42;3.05;;;2.15;;
12476;SDS011;6303;51.504;6.300;2023-03-12T14:33:13;4.00;;;2.20;;
12476;SDS011;6303;51.504;6.300;2023-03-12T14:35:44;4.18;;;2.13;;
12476;SDS011;6303;51.504;6.300;2023-03-12T14:38:16;2.70;;;2.00;;
12476;SDS011;6303;51.504;6.300;2023-03-12T14:40:50;3.40;;;2.00;;
12476;SDS011;6303;51.504;6.300;2023-03-12T14:43:23;2.20;;;2.00;;
12476;SDS011;6303;51.504;6.300;2023-03-12T14:45:54;2.15;;;1.90;;
12476;SDS011;6303;51.504;6.300;2023-03-12T14:48:23;5.72;;;2.20;;
12476;SDS011;6303;51.504;6.300;2023-03-12T14:50:55;4.05;;;2.00;;
12476;SDS011;6303;51.504;6.300;2023-03-12T14:53:24;3.60;;;2.28;;
12476;SDS011;6303;51.504;6.300;2023-03-12T14:56:00;2.63;;;1.92;;
12476;SDS011;6303;51.504;6.300;2023-03-12T14:58:28;3.83;;;2.00;;
12476;SDS011;6303;51.504;6.300;2023-03-12T15:00:56;4.20;;;1.98;;
12476;SDS011;6303;51.504;6.300;2023-03-12T15:03:25;7.03;;;2.20;;
12476;SDS011;6303;51.504;6.300;2023-03-12T15:05:54;3.55;;;2.17;;
12476;SDS011;6303;51.504;6.300;2023-03-12T15:08:23;2.95;;;1.80;;
12476;SDS011;6303;51.504;6.300;2023-03-12T15:10:53;3.72;;;2.10;;
12476;SDS011;6303;51.504;6.300;2023-03-12T15:13:22;3.60;;;2.20;;
12476;SDS011;6303;51.504;6.300;2023-03-12T15:15:52;3.33;;;1.95;;
12476;SDS011;6303;51.504;6.300;2023-03-12T15:18:20;4.07;;;2.13;;
12476;SDS011;6303;51.504;6.300;2023-03-12T15:20:51;3.78;;;1.95;;
12476;SDS011;6303;51.504;6.300;2023-03-12T15:23:22;3.03;;;1.85;;
12476;SDS011;6303;51.504;6.300;2023-03-12T15:28:38;4.18;;;1.90;;
12476;SDS011;6303;51.504;6.300;2023-03-12T15:31:07;4.32;;;2.17;;
12476;SDS011;6303;51.504;6.300;2023-03-12T15:33:38;3.28;;;1.70;;
12476;SDS011;6303;51.504;6.300;2023-03-12T15:36:15;3.42;;;1.77;;
12476;SDS011;6303;51.504;6.300;2023-03-12T15:38:53;2.80;;;2.10;;
12476;SDS011;6303;51.504;6.300;2023-03-12T15:41:24;4.22;;;2.03;;